Time;durP1;ratioP1;P1;durP2;ratioP2;P2;SDS_P1;SDS_P2;PMS_P1;PMS_P2;Temp;Humidity;BMP_temperature;BMP_pressure;BME280_temperature;BME280_humidity;BME280_pressure;Samples;Min_cycle;Max_cycle;Signal;HPM_P1;HPM_P2
2022/01/18 00:00:18;;;;;;;217.35;82.95;;;;;;;;;;4998230;28;20026;-87
2022/01/18 00:02:44;;;;;;;216.23;84.32;;;;;;;;;;5009138;28;20022;-87
2022/01/18 00:05:14;;;;;;;200.43;78.72;;;;;;;;;;4986804;28;20022;-88
2022/01/18 00:07:41;;;;;;;228.02;86.97;;;;;;;;;;5007668;28;20060;-87
2022/01/18 00:10:07;;;;;;;209.88;79.20;;;;;;;;;;4993726;28;20552;-87
2022/01/18 00:15:29;;;;;;;250.65;112.95;;;;;;;;;;4993274;28;20073;-88
2022/01/18 00:20:42;;;;;;;253.65;112.88;;;;;;;;;;4991658;28;20466;-89
2022/01/18 00:23:09;;;;;;;194.55;88.72;;;;;;;;;;4973543;28;20026;-89
2022/01/18 00:25:39;;;;;;;179.30;80.00;;;;;;;;;;4988950;28;20027;-88
2022/01/18 00:28:06;;;;;;;144.45;57.03;;;;;;;;;;4975381;28;20089;-88
2022/01/18 00:35:33;;;;;;;118.68;48.65;;;;;;;;;;4993240;28;20081;-88
2022/01/18 00:37:59;;;;;;;126.70;46.03;;;;;;;;;;5008369;28;20079;-88
2022/01/18 00:40:26;;;;;;;107.75;41.65;;;;;;;;;;5008230;28;20026;-89
2022/01/18 00:42:53;;;;;;;107.53;44.22;;;;;;;;;;4992527;28;20537;-89
2022/01/18 00:45:19;;;;;;;163.60;57.83;;;;;;;;;;5015132;28;20034;-88
2022/01/18 00:47:46;;;;;;;201.27;68.07;;;;;;;;;;5006564;28;20022;-88
2022/01/18 00:50:13;;;;;;;274.88;79.72;;;;;;;;;;4991962;28;20019;-88
2022/01/18 00:52:42;;;;;;;331.23;90.75;;;;;;;;;;5004967;28;20389;-88
2022/01/18 00:55:10;;;;;;;339.90;93.18;;;;;;;;;;5008233;28;20031;-87
2022/01/18 00:57:36;;;;;;;238.75;78.60;;;;;;;;;;4993018;28;20025;-87
2022/01/18 01:00:04;;;;;;;262.05;78.65;;;;;;;;;;4991718;28;20030;-89
2022/01/18 01:02:30;;;;;;;309.08;84.88;;;;;;;;;;5007813;28;20030;-88
2022/01/18 01:04:57;;;;;;;257.35;78.35;;;;;;;;;;5008066;28;20113;-88
2022/01/18 01:07:24;;;;;;;357.25;88.57;;;;;;;;;;5007863;28;20121;-89
2022/01/18 01:09:50;;;;;;;340.90;89.55;;;;;;;;;;5005319;28;20026;-88
2022/01/18 01:12:19;;;;;;;374.77;91.35;;;;;;;;;;5007989;28;20030;-88
2022/01/18 01:14:46;;;;;;;447.38;98.03;;;;;;;;;;5007804;28;20041;-87
2022/01/18 01:34:35;;;;;;;455.70;89.65;;;;;;;;;;4992336;28;20049;-89
2022/01/18 01:42:42;;;;;;;216.52;63.65;;;;;;;;;;5088560;28;20133;-87
2022/01/18 01:45:03;;;;;;;459.23;97.47;;;;;;;;;;5094432;28;20502;-88
2022/01/18 01:47:35;;;;;;;316.23;79.78;;;;;;;;;;5006187;28;20480;-87
2022/01/18 01:50:04;;;;;;;248.10;67.45;;;;;;;;;;4991989;28;20160;-87
2022/01/18 01:52:30;;;;;;;312.90;72.88;;;;;;;;;;5004383;28;20065;-87
2022/01/18 01:54:56;;;;;;;370.85;80.50;;;;;;;;;;4971676;28;20031;-86
2022/01/18 01:57:23;;;;;;;329.02;74.88;;;;;;;;;;4985715;28;20030;-87
2022/01/18 01:59:49;;;;;;;271.38;74.97;;;;;;;;;;4987929;28;20027;-87
2022/01/18 02:02:16;;;;;;;475.40;91.15;;;;;;;;;;4988394;28;20133;-87
2022/01/18 02:04:42;;;;;;;390.08;82.50;;;;;;;;;;5006967;28;20106;-86
2022/01/18 02:07:09;;;;;;;210.10;63.13;;;;;;;;;;4991654;28;20457;-87
2022/01/18 02:09:35;;;;;;;163.63;57.22;;;;;;;;;;5007095;28;20023;-86
2022/01/18 02:12:01;;;;;;;335.30;77.88;;;;;;;;;;4991773;28;20027;-87
2022/01/18 02:14:31;;;;;;;333.63;76.35;;;;;;;;;;5005332;28;20432;-87
2022/01/18 02:22:27;;;;;;;243.98;75.97;;;;;;;;;;4987545;28;20076;-92
2022/01/18 02:24:53;;;;;;;307.35;88.95;;;;;;;;;;5005911;28;20376;-88
2022/01/18 02:27:20;;;;;;;406.35;105.97;;;;;;;;;;5003587;28;20027;-88
2022/01/18 02:29:46;;;;;;;371.13;98.65;;;;;;;;;;5006797;28;20022;-91
2022/01/18 02:32:12;;;;;;;414.63;104.90;;;;;;;;;;5000982;28;20058;-88
2022/01/18 02:34:39;;;;;;;528.00;118.82;;;;;;;;;;5006981;28;20121;-88
2022/01/18 02:37:05;;;;;;;370.98;101.13;;;;;;;;;;5010397;28;20058;-88
2022/01/18 02:39:32;;;;;;;438.80;107.75;;;;;;;;;;5009243;28;20044;-88
2022/01/18 02:41:59;;;;;;;283.55;88.53;;;;;;;;;;5010264;28;20027;-88
2022/01/18 02:44:27;;;;;;;347.50;99.45;;;;;;;;;;4993903;28;20041;-88
2022/01/18 02:46:53;;;;;;;373.67;101.00;;;;;;;;;;4993367;28;20045;-88
2022/01/18 02:49:20;;;;;;;276.02;88.53;;;;;;;;;;5009866;28;20469;-87
2022/01/18 02:51:46;;;;;;;336.75;100.80;;;;;;;;;;5009990;28;20049;-88
2022/01/18 02:54:14;;;;;;;311.50;97.90;;;;;;;;;;5013802;28;20034;-87
2022/01/18 02:56:43;;;;;;;256.88;85.05;;;;;;;;;;5015634;28;20125;-87
2022/01/18 02:59:18;;;;;;;296.77;92.30;;;;;;;;;;5054845;28;20366;-87
2022/01/18 03:04:32;;;;;;;274.83;92.40;;;;;;;;;;4994892;28;20037;-88
2022/01/18 03:06:58;;;;;;;301.30;98.50;;;;;;;;;;5009995;28;20030;-88
2022/01/18 03:09:24;;;;;;;303.20;104.47;;;;;;;;;;4993689;28;20030;-87
2022/01/18 03:11:51;;;;;;;346.30;115.00;;;;;;;;;;5008979;28;20044;-86
2022/01/18 03:14:17;;;;;;;309.23;108.05;;;;;;;;;;4994398;28;20544;-87
2022/01/18 03:16:43;;;;;;;300.45;101.30;;;;;;;;;;5009395;28;20058;-87
2022/01/18 03:19:10;;;;;;;274.40;100.43;;;;;;;;;;5006165;28;20469;-86
2022/01/18 03:21:36;;;;;;;232.35;89.22;;;;;;;;;;4986131;28;20574;-87
2022/01/18 03:24:44;;;;;;;252.77;96.28;;;;;;;;;;5009207;28;20087;-89
2022/01/18 03:29:52;;;;;;;211.38;86.88;;;;;;;;;;4993650;28;20133;-88
2022/01/18 03:32:18;;;;;;;208.43;89.50;;;;;;;;;;5007682;28;20038;-89
2022/01/18 03:34:49;;;;;;;222.95;90.15;;;;;;;;;;5006165;28;20122;-90
2022/01/18 03:37:16;;;;;;;200.43;85.05;;;;;;;;;;4990693;28;20110;-88
2022/01/18 03:39:42;;;;;;;200.52;91.18;;;;;;;;;;5009138;28;20366;-88
2022/01/18 03:44:45;;;;;;;147.02;67.63;;;;;;;;;;4994121;28;20035;-87
2022/01/18 03:47:14;;;;;;;137.35;64.22;;;;;;;;;;5009089;28;20037;-88
2022/01/18 03:49:40;;;;;;;115.90;49.72;;;;;;;;;;5008866;28;20527;-89
2022/01/18 03:52:07;;;;;;;111.60;50.65;;;;;;;;;;5005372;28;20456;-88
2022/01/18 03:54:41;;;;;;;112.28;51.75;;;;;;;;;;4991737;28;20034;-87
2022/01/18 03:57:08;;;;;;;110.15;49.60;;;;;;;;;;4991529;28;20109;-88
2022/01/18 03:59:34;;;;;;;103.03;48.78;;;;;;;;;;5008281;28;20034;-88
2022/01/18 04:02:00;;;;;;;89.43;39.78;;;;;;;;;;4991137;28;20737;-87
2022/01/18 04:04:26;;;;;;;84.35;38.30;;;;;;;;;;4988692;28;20027;-88
2022/01/18 04:06:53;;;;;;;78.88;35.75;;;;;;;;;;4973501;28;20038;-88
2022/01/18 04:09:20;;;;;;;77.85;37.72;;;;;;;;;;4988777;28;20076;-88
2022/01/18 04:11:46;;;;;;;74.22;33.88;;;;;;;;;;5012164;28;20031;-88
2022/01/18 04:14:13;;;;;;;75.25;35.97;;;;;;;;;;5009177;28;20031;-89
2022/01/18 04:16:57;;;;;;;70.00;34.80;;;;;;;;;;5024660;28;20038;-89
2022/01/18 04:25:50;;;;;;;69.68;30.83;;;;;;;;;;4992337;28;20027;-89
2022/01/18 04:27:45;;;;;;;68.60;27.67;;;;;;;;;;5030318;28;20480;-88
2022/01/18 04:30:12;;;;;;;70.00;26.25;;;;;;;;;;4992214;28;20050;-88
2022/01/18 04:32:38;;;;;;;68.30;25.85;;;;;;;;;;4991965;28;20106;-88
2022/01/18 04:35:05;;;;;;;66.68;26.15;;;;;;;;;;5042191;28;20022;-88
2022/01/18 04:37:31;;;;;;;57.03;21.77;;;;;;;;;;5008442;28;20495;-89
2022/01/18 04:39:58;;;;;;;51.47;21.95;;;;;;;;;;4992455;28;20048;-89
2022/01/18 04:50:27;;;;;;;39.80;20.00;;;;;;;;;;4993073;28;20025;-88
2022/01/18 04:52:53;;;;;;;43.88;17.77;;;;;;;;;;5007976;28;20034;-89
2022/01/18 04:55:20;;;;;;;39.05;19.10;;;;;;;;;;5007973;28;20465;-89
2022/01/18 04:57:52;;;;;;;47.17;21.70;;;;;;;;;;5007699;28;20033;-89
2022/01/18 05:00:19;;;;;;;42.88;19.42;;;;;;;;;;5002945;28;20019;-89
2022/01/18 05:02:47;;;;;;;46.78;20.65;;;;;;;;;;5007831;28;20052;-89
2022/01/18 05:05:22;;;;;;;40.42;18.55;;;;;;;;;;4985973;28;20221;-89
2022/01/18 05:07:49;;;;;;;37.20;16.20;;;;;;;;;;4987502;28;20105;-89
2022/01/18 05:10:19;;;;;;;34.33;13.32;;;;;;;;;;4992597;28;20101;-89
2022/01/18 05:12:48;;;;;;;31.20;13.20;;;;;;;;;;4992745;28;20022;-88
2022/01/18 05:18:59;;;;;;;32.13;10.48;;;;;;;;;;4992794;28;20046;-87
2022/01/18 05:21:08;;;;;;;25.10;7.25;;;;;;;;;;4994237;28;20030;-88
2022/01/18 05:23:29;;;;;;;18.67;6.80;;;;;;;;;;4992246;28;20504;-87
2022/01/18 05:25:55;;;;;;;21.58;6.68;;;;;;;;;;4991346;28;20130;-87
2022/01/18 05:28:22;;;;;;;17.83;5.75;;;;;;;;;;4991450;28;20023;-87
2022/01/18 05:30:48;;;;;;;17.90;7.95;;;;;;;;;;4992477;28;20102;-87
2022/01/18 05:33:14;;;;;;;26.05;9.05;;;;;;;;;;4992646;28;20057;-88
2022/01/18 05:35:41;;;;;;;27.88;11.20;;;;;;;;;;4991385;28;20123;-90
2022/01/18 05:38:07;;;;;;;30.10;12.75;;;;;;;;;;5007487;28;20130;-88
2022/01/18 05:40:33;;;;;;;31.30;11.30;;;;;;;;;;5007017;28;20053;-88
2022/01/18 05:43:00;;;;;;;24.00;9.55;;;;;;;;;;5007518;28;20022;-88
2022/01/18 05:45:26;;;;;;;19.65;8.30;;;;;;;;;;4992464;28;20469;-89
2022/01/18 05:47:52;;;;;;;21.75;8.38;;;;;;;;;;4991309;28;20023;-86
2022/01/18 05:50:18;;;;;;;21.25;8.95;;;;;;;;;;4991214;28;20049;-86
2022/01/18 05:52:45;;;;;;;20.23;6.80;;;;;;;;;;4991260;28;20027;-87
2022/01/18 05:55:11;;;;;;;17.23;6.85;;;;;;;;;;5006641;28;20058;-89
2022/01/18 05:57:38;;;;;;;19.13;7.38;;;;;;;;;;4990113;28;20019;-86
2022/01/18 06:00:17;;;;;;;15.32;6.43;;;;;;;;;;4990924;28;20113;-86
2022/01/18 06:02:53;;;;;;;18.58;5.80;;;;;;;;;;4972755;28;20377;-87
2022/01/18 06:08:04;;;;;;;16.80;6.22;;;;;;;;;;4991643;28;20041;-86
2022/01/18 06:10:31;;;;;;;31.48;10.25;;;;;;;;;;4990851;28;20449;-86
2022/01/18 06:13:00;;;;;;;29.88;9.70;;;;;;;;;;4999083;28;20469;-86
2022/01/18 06:15:26;;;;;;;26.75;11.20;;;;;;;;;;4987106;28;20038;-87
2022/01/18 06:17:53;;;;;;;28.40;9.57;;;;;;;;;;4990561;28;20087;-86
2022/01/18 06:20:19;;;;;;;27.65;10.60;;;;;;;;;;4990655;28;20026;-86
2022/01/18 06:22:45;;;;;;;24.00;7.90;;;;;;;;;;5006011;28;20030;-86
2022/01/18 06:25:12;;;;;;;27.52;9.70;;;;;;;;;;5006958;28;20030;-86
2022/01/18 06:27:38;;;;;;;26.55;10.85;;;;;;;;;;5003918;28;20027;-86
2022/01/18 06:30:09;;;;;;;24.42;10.10;;;;;;;;;;4988414;28;20114;-86
2022/01/18 06:32:37;;;;;;;26.35;9.07;;;;;;;;;;4991916;28;20053;-86
2022/01/18 06:35:03;;;;;;;22.83;7.78;;;;;;;;;;4991535;28;20026;-86
2022/01/18 06:37:29;;;;;;;20.55;7.40;;;;;;;;;;4990163;28;20489;-85
2022/01/18 06:39:58;;;;;;;14.27;5.22;;;;;;;;;;4990206;28;20076;-85
2022/01/18 06:42:24;;;;;;;16.65;5.97;;;;;;;;;;4991668;28;20532;-86
2022/01/18 06:44:51;;;;;;;14.02;4.60;;;;;;;;;;4990260;28;20034;-87
2022/01/18 06:47:18;;;;;;;12.23;4.90;;;;;;;;;;4990313;28;20426;-87
2022/01/18 06:49:44;;;;;;;8.02;3.08;;;;;;;;;;4990466;28;20027;-87
2022/01/18 06:52:10;;;;;;;6.10;3.15;;;;;;;;;;4992290;28;20782;-87
2022/01/18 06:54:37;;;;;;;7.40;2.63;;;;;;;;;;4987885;28;20030;-87
2022/01/18 06:57:03;;;;;;;7.63;2.83;;;;;;;;;;5003177;28;20083;-88
2022/01/18 06:59:34;;;;;;;14.45;4.65;;;;;;;;;;4989187;28;20106;-88
2022/01/18 07:02:00;;;;;;;12.25;4.60;;;;;;;;;;5005802;28;20764;-86
2022/01/18 07:04:26;;;;;;;15.65;4.75;;;;;;;;;;5005887;28;20025;-87
2022/01/18 07:06:53;;;;;;;12.80;4.80;;;;;;;;;;4989570;28;20033;-85
2022/01/18 07:09:28;;;;;;;9.00;4.13;;;;;;;;;;4990737;28;20026;-85
2022/01/18 07:11:56;;;;;;;61.15;26.38;;;;;;;;;;5025681;28;20054;-86
2022/01/18 07:14:23;;;;;;;77.55;32.55;;;;;;;;;;4990782;28;20019;-85
2022/01/18 07:16:50;;;;;;;85.60;36.58;;;;;;;;;;5007122;28;20485;-90
2022/01/18 07:19:16;;;;;;;91.53;35.40;;;;;;;;;;5006313;28;20034;-91
2022/01/18 07:21:42;;;;;;;90.85;39.38;;;;;;;;;;5004044;28;20033;-88
2022/01/18 07:24:18;;;;;;;89.60;40.17;;;;;;;;;;4990701;28;20027;-87
2022/01/18 07:26:46;;;;;;;97.40;40.05;;;;;;;;;;4995864;28;20050;-87
2022/01/18 07:29:16;;;;;;;78.47;36.42;;;;;;;;;;5026305;28;20023;-87
2022/01/18 07:31:42;;;;;;;79.70;36.63;;;;;;;;;;5018648;28;20484;-88
2022/01/18 07:34:09;;;;;;;86.30;37.22;;;;;;;;;;5009434;28;20105;-88
2022/01/18 07:36:35;;;;;;;74.90;36.22;;;;;;;;;;4992994;28;20461;-87
2022/01/18 07:39:01;;;;;;;85.28;35.28;;;;;;;;;;5008943;28;20037;-88
2022/01/18 07:41:29;;;;;;;93.35;42.97;;;;;;;;;;5007386;28;20160;-87
2022/01/18 07:43:55;;;;;;;92.93;42.83;;;;;;;;;;4992534;28;20034;-88
2022/01/18 07:46:22;;;;;;;92.45;40.13;;;;;;;;;;4992775;28;20358;-88
2022/01/18 07:48:48;;;;;;;84.95;39.80;;;;;;;;;;5005728;28;20113;-87
2022/01/18 07:51:16;;;;;;;71.18;32.65;;;;;;;;;;5007845;28;20378;-88
2022/01/18 07:53:42;;;;;;;61.58;28.73;;;;;;;;;;4989147;28;20026;-88
2022/01/18 07:56:09;;;;;;;64.55;26.15;;;;;;;;;;4994301;28;20072;-89
2022/01/18 07:58:35;;;;;;;21.92;10.27;;;;;;;;;;5004476;28;20022;-88
2022/01/18 08:01:01;;;;;;;32.78;14.20;;;;;;;;;;4994215;28;20469;-88
2022/01/18 08:03:33;;;;;;;46.72;22.23;;;;;;;;;;5008190;28;20034;-88
2022/01/18 08:05:59;;;;;;;35.38;14.43;;;;;;;;;;4992101;28;20117;-88
2022/01/18 08:08:26;;;;;;;43.08;17.65;;;;;;;;;;5007957;28;20015;-88
2022/01/18 08:10:52;;;;;;;54.55;22.10;;;;;;;;;;5003262;28;20121;-88
2022/01/18 08:13:23;;;;;;;56.40;22.48;;;;;;;;;;5000015;28;20435;-88
2022/01/18 08:15:58;;;;;;;56.33;25.63;;;;;;;;;;5004252;28;20030;-87
2022/01/18 08:18:24;;;;;;;73.22;29.67;;;;;;;;;;4991759;28;20038;-87
2022/01/18 08:20:51;;;;;;;63.03;24.60;;;;;;;;;;5000304;28;20079;-87
2022/01/18 08:23:17;;;;;;;68.25;25.77;;;;;;;;;;5005765;28;20022;-86
2022/01/18 08:25:44;;;;;;;74.03;26.92;;;;;;;;;;5007831;28;20030;-87
2022/01/18 08:28:10;;;;;;;80.95;27.08;;;;;;;;;;4991571;28;20019;-88
2022/01/18 08:30:37;;;;;;;79.07;30.98;;;;;;;;;;5010650;28;20354;-87
2022/01/18 08:33:03;;;;;;;94.25;32.40;;;;;;;;;;5004953;28;20050;-87
2022/01/18 08:35:31;;;;;;;111.88;38.28;;;;;;;;;;4992939;28;20023;-87
2022/01/18 08:37:58;;;;;;;112.30;41.40;;;;;;;;;;4994234;28;20113;-87
2022/01/18 08:40:24;;;;;;;109.40;44.42;;;;;;;;;;4997193;28;20385;-87
2022/01/18 08:42:50;;;;;;;112.80;46.38;;;;;;;;;;4991996;28;20015;-88
2022/01/18 08:45:16;;;;;;;102.63;43.35;;;;;;;;;;5004414;28;20031;-87
2022/01/18 08:47:43;;;;;;;97.43;40.03;;;;;;;;;;4988955;28;20357;-87
2022/01/18 08:50:09;;;;;;;113.68;42.60;;;;;;;;;;5006797;28;20056;-86
2022/01/18 08:52:35;;;;;;;104.90;40.28;;;;;;;;;;5007612;28;20469;-86
2022/01/18 08:55:02;;;;;;;96.35;35.08;;;;;;;;;;5007529;28;20032;-88
2022/01/18 08:57:28;;;;;;;97.63;38.80;;;;;;;;;;5021768;28;20030;-86
2022/01/18 08:59:54;;;;;;;112.07;46.03;;;;;;;;;;5007552;28;20480;-87
2022/01/18 09:02:21;;;;;;;96.55;42.22;;;;;;;;;;4998953;28;20028;-87
2022/01/18 09:04:47;;;;;;;98.57;41.33;;;;;;;;;;5007286;28;20054;-87
2022/01/18 09:07:16;;;;;;;86.22;35.83;;;;;;;;;;5007398;28;20109;-87
2022/01/18 09:09:44;;;;;;;90.82;37.00;;;;;;;;;;4987130;28;20053;-87
2022/01/18 09:12:13;;;;;;;97.85;38.95;;;;;;;;;;5007249;28;20018;-87
2022/01/18 09:14:39;;;;;;;89.40;35.22;;;;;;;;;;4992024;28;20074;-86
2022/01/18 09:17:06;;;;;;;94.50;36.00;;;;;;;;;;4992147;28;20065;-86
2022/01/18 09:19:33;;;;;;;91.88;34.85;;;;;;;;;;4995917;28;20102;-87
2022/01/18 09:22:00;;;;;;;75.32;29.98;;;;;;;;;;4995497;28;20022;-87
2022/01/18 09:24:26;;;;;;;77.68;32.03;;;;;;;;;;4996392;28;20033;-87
2022/01/18 09:26:53;;;;;;;84.75;30.13;;;;;;;;;;5004312;28;20022;-87
2022/01/18 09:29:20;;;;;;;79.22;31.27;;;;;;;;;;4991979;28;20050;-88
2022/01/18 09:31:47;;;;;;;78.88;29.40;;;;;;;;;;4990178;28;20397;-90
2022/01/18 09:34:16;;;;;;;82.93;32.47;;;;;;;;;;4991769;28;20030;-88
2022/01/18 09:36:43;;;;;;;89.55;34.78;;;;;;;;;;4977676;28;20030;-86
2022/01/18 09:39:09;;;;;;;78.88;34.15;;;;;;;;;;4991670;28;20026;-86
2022/01/18 09:41:39;;;;;;;80.10;34.83;;;;;;;;;;5007009;28;20093;-86
2022/01/18 09:44:06;;;;;;;91.68;33.92;;;;;;;;;;5006636;28;20033;-86
2022/01/18 09:46:33;;;;;;;94.72;35.35;;;;;;;;;;4990251;28;20030;-88
2022/01/18 09:49:00;;;;;;;84.25;33.88;;;;;;;;;;4998601;28;20018;-86
2022/01/18 09:51:28;;;;;;;78.03;30.25;;;;;;;;;;5019073;28;20033;-88
2022/01/18 09:53:55;;;;;;;72.07;29.13;;;;;;;;;;4981689;28;20023;-86
2022/01/18 09:56:22;;;;;;;80.10;30.20;;;;;;;;;;5006696;28;20042;-86
2022/01/18 09:58:48;;;;;;;65.35;25.95;;;;;;;;;;5006932;28;20022;-86
2022/01/18 10:01:15;;;;;;;75.13;27.05;;;;;;;;;;5006292;28;20030;-86
2022/01/18 10:03:41;;;;;;;65.75;27.02;;;;;;;;;;4972655;28;20034;-86
2022/01/18 10:06:08;;;;;;;68.00;27.60;;;;;;;;;;4971032;28;20033;-86
2022/01/18 10:08:35;;;;;;;63.13;25.73;;;;;;;;;;4981443;28;20107;-86
2022/01/18 10:11:07;;;;;;;59.55;21.60;;;;;;;;;;4988036;28;20026;-86
2022/01/18 10:13:34;;;;;;;46.10;16.92;;;;;;;;;;4986598;28;20585;-85
2022/01/18 10:16:02;;;;;;;41.55;15.82;;;;;;;;;;4997315;28;20066;-85
2022/01/18 10:18:39;;;;;;;36.85;15.15;;;;;;;;;;4986808;28;20031;-84
2022/01/18 10:21:07;;;;;;;41.60;15.70;;;;;;;;;;4986598;28;20407;-85
2022/01/18 10:23:34;;;;;;;42.63;14.88;;;;;;;;;;4987791;28;20121;-86
2022/01/18 10:26:15;;;;;;;36.83;14.82;;;;;;;;;;4989644;28;20057;-85
2022/01/18 10:28:41;;;;;;;33.20;13.55;;;;;;;;;;4990662;28;20076;-85
2022/01/18 10:31:26;;;;;;;36.88;14.43;;;;;;;;;;4989183;28;20025;-86
2022/01/18 10:34:11;;;;;;;43.85;15.10;;;;;;;;;;4995959;28;20108;-88
2022/01/18 10:36:51;;;;;;;45.00;15.55;;;;;;;;;;5006091;28;20041;-86
2022/01/18 10:39:22;;;;;;;41.17;17.60;;;;;;;;;;5000017;28;20026;-87
2022/01/18 10:41:48;;;;;;;46.58;18.08;;;;;;;;;;4976874;28;20026;-87
2022/01/18 10:44:16;;;;;;;40.72;17.83;;;;;;;;;;5005643;28;20100;-86
2022/01/18 10:46:50;;;;;;;40.42;16.73;;;;;;;;;;4979943;28;20023;-87
2022/01/18 10:49:26;;;;;;;46.35;16.35;;;;;;;;;;4991618;28;20035;-86
2022/01/18 10:52:00;;;;;;;48.38;16.38;;;;;;;;;;4990268;28;20385;-86
2022/01/18 10:54:47;;;;;;;50.60;17.42;;;;;;;;;;5008945;28;20038;-86
2022/01/18 10:57:23;;;;;;;45.22;16.95;;;;;;;;;;5031498;28;20032;-86
2022/01/18 10:59:55;;;;;;;41.17;17.98;;;;;;;;;;5026520;28;20122;-84
2022/01/18 11:02:22;;;;;;;49.88;17.75;;;;;;;;;;4973709;28;20030;-86
2022/01/18 11:04:49;;;;;;;44.38;17.75;;;;;;;;;;4973057;28;20026;-85
2022/01/18 11:07:17;;;;;;;42.47;17.48;;;;;;;;;;5008979;28;20034;-86
2022/01/18 11:09:44;;;;;;;40.92;16.30;;;;;;;;;;4983568;28;20030;-85
2022/01/18 11:12:11;;;;;;;44.85;18.02;;;;;;;;;;5006242;28;20018;-85
2022/01/18 11:14:40;;;;;;;49.17;18.58;;;;;;;;;;5008212;28;20034;-86
2022/01/18 11:17:08;;;;;;;51.00;17.80;;;;;;;;;;4992646;28;20023;-85
2022/01/18 11:19:37;;;;;;;48.00;18.73;;;;;;;;;;5005050;28;20064;-85
2022/01/18 11:22:10;;;;;;;50.78;18.80;;;;;;;;;;4992145;28;20057;-85
2022/01/18 11:24:47;;;;;;;46.40;18.70;;;;;;;;;;4994003;28;20020;-85
2022/01/18 11:27:15;;;;;;;52.58;18.92;;;;;;;;;;5012061;28;20084;-86
2022/01/18 11:29:42;;;;;;;47.55;17.70;;;;;;;;;;5042749;28;20060;-86
2022/01/18 11:32:08;;;;;;;46.22;18.55;;;;;;;;;;4989344;28;20042;-85
2022/01/18 11:34:53;;;;;;;49.80;19.95;;;;;;;;;;5005296;28;20535;-86
2022/01/18 11:37:26;;;;;;;69.68;28.38;;;;;;;;;;5013025;28;20062;-86
2022/01/18 11:40:00;;;;;;;101.78;38.22;;;;;;;;;;4991923;28;20030;-85
2022/01/18 11:42:39;;;;;;;133.18;52.53;;;;;;;;;;4993784;28;20018;-87
2022/01/18 11:45:24;;;;;;;164.05;61.75;;;;;;;;;;4993131;28;20022;-87
2022/01/18 11:47:59;;;;;;;149.00;57.78;;;;;;;;;;5007636;28;20026;-87
2022/01/18 11:50:30;;;;;;;111.90;43.58;;;;;;;;;;4988968;28;20030;-86
2022/01/18 11:53:25;;;;;;;90.90;37.05;;;;;;;;;;5008711;28;20034;-87
2022/01/18 11:56:02;;;;;;;76.78;33.38;;;;;;;;;;4992033;28;20472;-86
2022/01/18 11:58:28;;;;;;;83.57;32.20;;;;;;;;;;4992526;28;20030;-87
2022/01/18 12:00:57;;;;;;;82.85;32.97;;;;;;;;;;5008757;28;20432;-86
2022/01/18 12:03:26;;;;;;;86.20;32.97;;;;;;;;;;4993664;28;20019;-86
2022/01/18 12:05:53;;;;;;;82.20;33.22;;;;;;;;;;4992499;28;20033;-86
2022/01/18 12:08:42;;;;;;;81.18;33.55;;;;;;;;;;4994608;28;20113;-86
2022/01/18 12:11:10;;;;;;;92.25;34.35;;;;;;;;;;5001641;28;20038;-86
2022/01/18 12:13:42;;;;;;;93.13;34.50;;;;;;;;;;5012273;28;20023;-86
2022/01/18 12:16:17;;;;;;;90.25;35.65;;;;;;;;;;4993275;28;20114;-86
2022/01/18 12:18:51;;;;;;;84.82;35.95;;;;;;;;;;5008304;28;20455;-86
2022/01/18 12:21:20;;;;;;;88.32;35.65;;;;;;;;;;4988255;28;20050;-86
2022/01/18 12:23:46;;;;;;;81.13;34.25;;;;;;;;;;5040670;28;20038;-86
2022/01/18 12:34:32;;;;;;;91.50;39.10;;;;;;;;;;4991288;28;20376;-87
2022/01/18 12:37:08;;;;;;;98.65;41.95;;;;;;;;;;4993621;28;20046;-86
2022/01/18 12:39:58;;;;;;;101.55;41.63;;;;;;;;;;4992078;28;20030;-85
2022/01/18 12:45:19;;;;;;;117.72;46.58;;;;;;;;;;4992168;28;20030;-86
2022/01/18 12:47:51;;;;;;;103.50;43.88;;;;;;;;;;5003252;28;20105;-90
2022/01/18 12:50:23;;;;;;;86.20;39.60;;;;;;;;;;4995274;28;20101;-86
2022/01/18 12:52:49;;;;;;;89.00;38.70;;;;;;;;;;4984841;28;20041;-85
2022/01/18 12:55:30;;;;;;;88.20;38.92;;;;;;;;;;5007474;28;20030;-85
2022/01/18 12:58:15;;;;;;;91.43;41.10;;;;;;;;;;5007419;28;20103;-85
2022/01/18 13:00:42;;;;;;;87.28;41.08;;;;;;;;;;4992503;28;20036;-87
2022/01/18 13:03:09;;;;;;;100.07;40.80;;;;;;;;;;4992425;28;20022;-86
2022/01/18 13:05:45;;;;;;;102.88;45.08;;;;;;;;;;5007384;28;20034;-86
2022/01/18 13:08:12;;;;;;;102.22;45.70;;;;;;;;;;5001597;28;20497;-85
2022/01/18 13:10:58;;;;;;;100.57;45.67;;;;;;;;;;5007598;28;20030;-85
2022/01/18 13:13:29;;;;;;;105.75;47.03;;;;;;;;;;4990956;28;20026;-86
2022/01/18 13:26:38;;;;;;;135.82;61.78;;;;;;;;;;4986880;28;20070;-86
2022/01/18 13:29:15;;;;;;;144.65;62.55;;;;;;;;;;4989892;28;20062;-87
2022/01/18 13:31:45;;;;;;;136.27;60.28;;;;;;;;;;5004682;28;20049;-87
2022/01/18 13:34:13;;;;;;;131.93;60.60;;;;;;;;;;4988995;28;20026;-86
2022/01/18 13:36:50;;;;;;;130.55;59.25;;;;;;;;;;4988106;28;20084;-86
2022/01/18 13:39:21;;;;;;;129.93;59.88;;;;;;;;;;4998138;28;20038;-86
2022/01/18 13:41:48;;;;;;;133.05;60.55;;;;;;;;;;5005817;28;20037;-87
2022/01/18 13:44:14;;;;;;;150.02;62.60;;;;;;;;;;5005906;28;20026;-86
2022/01/18 13:46:41;;;;;;;134.18;59.25;;;;;;;;;;5006024;28;20080;-86
2022/01/18 13:49:09;;;;;;;121.13;54.50;;;;;;;;;;5006246;28;20046;-86
2022/01/18 13:51:35;;;;;;;126.25;57.22;;;;;;;;;;5002376;28;20031;-86
2022/01/18 13:54:05;;;;;;;122.43;56.65;;;;;;;;;;5006406;28;20026;-86
2022/01/18 13:56:31;;;;;;;129.68;59.95;;;;;;;;;;5044832;28;20500;-86
2022/01/18 13:59:02;;;;;;;123.32;57.97;;;;;;;;;;4990972;28;20075;-86
2022/01/18 14:01:36;;;;;;;141.00;63.03;;;;;;;;;;4990151;28;20024;-86
2022/01/18 14:04:14;;;;;;;142.63;66.28;;;;;;;;;;4975327;28;20076;-86
2022/01/18 14:06:41;;;;;;;160.80;75.45;;;;;;;;;;5021232;28;20060;-86
2022/01/18 14:09:08;;;;;;;163.98;79.47;;;;;;;;;;4989460;28;20018;-86
2022/01/18 14:11:36;;;;;;;176.82;81.90;;;;;;;;;;4994211;28;20031;-86
2022/01/18 14:14:20;;;;;;;167.52;80.20;;;;;;;;;;5000762;28;20414;-86
2022/01/18 14:16:51;;;;;;;159.98;76.03;;;;;;;;;;4989943;28;20690;-86
2022/01/18 14:19:27;;;;;;;167.82;79.40;;;;;;;;;;4986823;28;20477;-86
2022/01/18 14:21:53;;;;;;;157.95;78.25;;;;;;;;;;4989532;28;20477;-86
2022/01/18 14:24:22;;;;;;;151.07;72.57;;;;;;;;;;5015873;28;20380;-86
2022/01/18 14:26:51;;;;;;;160.05;75.10;;;;;;;;;;5007143;28;20018;-87
2022/01/18 14:29:18;;;;;;;173.95;75.70;;;;;;;;;;4999893;28;20112;-86
2022/01/18 14:32:05;;;;;;;169.57;82.30;;;;;;;;;;5002728;28;20047;-87
2022/01/18 14:34:51;;;;;;;160.70;74.82;;;;;;;;;;5043186;28;20033;-87
2022/01/18 14:37:18;;;;;;;145.38;67.30;;;;;;;;;;4993951;28;20418;-86
2022/01/18 14:39:57;;;;;;;128.68;61.05;;;;;;;;;;5009128;28;20504;-87
2022/01/18 14:42:26;;;;;;;126.60;60.90;;;;;;;;;;5009515;28;20038;-86
2022/01/18 14:45:08;;;;;;;125.70;62.08;;;;;;;;;;5009398;28;20019;-87
2022/01/18 14:47:35;;;;;;;139.65;64.25;;;;;;;;;;5008587;28;20058;-87
2022/01/18 14:50:04;;;;;;;135.70;63.20;;;;;;;;;;5007728;28;20022;-87
2022/01/18 14:52:31;;;;;;;130.75;62.17;;;;;;;;;;5009538;28;20050;-86
2022/01/18 14:54:57;;;;;;;139.68;64.90;;;;;;;;;;5009260;28;20026;-87
2022/01/18 14:57:24;;;;;;;141.23;66.60;;;;;;;;;;5017154;28;20028;-86
2022/01/18 14:59:53;;;;;;;145.68;68.72;;;;;;;;;;5009010;28;20061;-86
2022/01/18 15:02:20;;;;;;;152.27;72.32;;;;;;;;;;4991305;28;20025;-86
2022/01/18 15:04:46;;;;;;;158.63;75.00;;;;;;;;;;5018727;28;20029;-90
2022/01/18 15:07:12;;;;;;;153.70;74.43;;;;;;;;;;5009078;28;20487;-87
2022/01/18 15:09:39;;;;;;;184.57;86.00;;;;;;;;;;4992925;28;20045;-87
2022/01/18 15:12:06;;;;;;;199.00;94.05;;;;;;;;;;4993533;28;20709;-86
2022/01/18 15:14:33;;;;;;;204.80;93.45;;;;;;;;;;4992039;28;20080;-87
2022/01/18 15:16:59;;;;;;;209.13;97.50;;;;;;;;;;5019652;28;20508;-87
2022/01/18 15:19:26;;;;;;;229.75;104.93;;;;;;;;;;5005643;28;20134;-86
2022/01/18 15:21:54;;;;;;;217.05;96.78;;;;;;;;;;4991242;28;20052;-87
2022/01/18 15:24:20;;;;;;;223.63;105.22;;;;;;;;;;5008699;28;20022;-86
2022/01/18 15:26:46;;;;;;;227.68;103.78;;;;;;;;;;5008823;28;20034;-86
2022/01/18 15:29:13;;;;;;;216.90;102.53;;;;;;;;;;4993108;28;20038;-86
2022/01/18 15:31:39;;;;;;;240.55;107.97;;;;;;;;;;4993212;28;20046;-87
2022/01/18 15:34:05;;;;;;;245.32;111.15;;;;;;;;;;5005696;28;20164;-87
2022/01/18 15:36:32;;;;;;;266.17;118.88;;;;;;;;;;4993581;28;20081;-86
2022/01/18 15:38:58;;;;;;;258.25;121.65;;;;;;;;;;5008204;28;20053;-86
2022/01/18 15:41:24;;;;;;;255.15;116.70;;;;;;;;;;4991970;28;20551;-87
2022/01/18 15:43:51;;;;;;;265.40;121.80;;;;;;;;;;4993641;28;20022;-86
2022/01/18 15:46:17;;;;;;;283.23;126.85;;;;;;;;;;5005662;28;20068;-86
2022/01/18 15:48:43;;;;;;;283.17;126.07;;;;;;;;;;5008511;28;20832;-87